createdAt,value
2023-05-12T00:02:31.417Z,67.16
2023-05-12T00:05:18.138Z,66.64
2023-05-12T00:08:05.054Z,67.57
2023-05-12T00:10:51.854Z,66.65
2023-05-12T00:13:38.628Z,66.70
2023-05-12T00:16:25.531Z,67.52
2023-05-12T00:19:12.362Z,67.06
2023-05-12T00:21:59.191Z,67.04
2023-05-12T00:24:45.929Z,66.78
2023-05-12T00:27:32.995Z,67.32
2023-05-12T00:30:19.976Z,67.09
2023-05-12T00:33:06.883Z,67.48
2023-05-12T00:35:53.645Z,66.98
2023-05-12T00:38:41.296Z,67.26
2023-05-12T00:41:28.315Z,67.08
2023-05-12T00:44:15.013Z,67.39
2023-05-12T00:47:01.832Z,67.35
2023-05-12T00:49:48.540Z,66.78
2023-05-12T00:52:35.235Z,67.02
2023-05-12T00:55:21.966Z,66.59
2023-05-12T00:58:08.764Z,66.85
2023-05-12T01:00:56.276Z,66.64
2023-05-12T01:03:43.355Z,66.85
2023-05-12T01:06:34.107Z,67.14
2023-05-12T01:09:21.004Z,67.21
2023-05-12T01:12:07.765Z,66.96
2023-05-12T01:14:54.983Z,67.11
2023-05-12T01:17:43.436Z,67.09
2023-05-12T01:20:30.269Z,67.31
2023-05-12T01:23:18.652Z,67.35
2023-05-12T01:26:06.806Z,67.42
2023-05-12T01:28:53.605Z,67.22
2023-05-12T01:31:40.435Z,66.84
2023-05-12T01:34:27.210Z,67.39
2023-05-12T01:37:13.915Z,67.04
2023-05-12T01:40:00.732Z,67.43
2023-05-12T01:42:47.494Z,67.86
2023-05-12T01:45:34.267Z,67.73
2023-05-12T01:48:20.973Z,67.37
2023-05-12T01:51:08.588Z,67.61
2023-05-12T01:53:55.335Z,67.34
2023-05-12T01:56:42.114Z,67.24
2023-05-12T01:59:28.808Z,67.42
2023-05-12T02:02:15.531Z,67.26
2023-05-12T02:05:02.410Z,66.84
2023-05-12T02:07:49.130Z,66.83
2023-05-12T02:10:35.894Z,67.66
2023-05-12T02:13:23.323Z,67.01
2023-05-12T02:16:10.512Z,67.35
2023-05-12T02:18:57.250Z,67.40
2023-05-12T02:21:46.145Z,67.60
2023-05-12T02:24:32.895Z,67.40
2023-05-12T02:27:19.608Z,67.54
2023-05-12T02:30:06.588Z,66.81
2023-05-12T02:32:53.415Z,67.24
2023-05-12T02:35:40.127Z,67.32
2023-05-12T02:38:27.492Z,67.52
2023-05-12T02:41:14.236Z,67.47
2023-05-12T02:44:00.987Z,67.41
2023-05-12T02:46:47.701Z,67.31
2023-05-12T02:49:34.373Z,67.52
2023-05-12T02:52:22.132Z,67.35
2023-05-12T02:55:08.913Z,67.50
2023-05-12T02:57:55.818Z,67.03
2023-05-12T03:00:42.540Z,67.29
2023-05-12T03:03:29.442Z,67.03
2023-05-12T03:06:16.143Z,66.98
2023-05-12T03:09:02.885Z,67.28
2023-05-12T03:11:49.696Z,67.29
2023-05-12T03:14:36.404Z,67.56
2023-05-12T03:17:23.143Z,67.16
2023-05-12T03:20:10.092Z,67.06
2023-05-12T03:22:56.854Z,67.14
2023-05-12T03:25:43.571Z,67.06
2023-05-12T03:28:30.300Z,67.19
2023-05-12T03:31:17.087Z,67.10
2023-05-12T03:34:03.805Z,67.13
2023-05-12T03:36:50.545Z,67.74
2023-05-12T03:39:37.327Z,67.55
2023-05-12T03:42:24.508Z,67.21
2023-05-12T03:45:11.673Z,67.38
2023-05-12T03:47:58.451Z,66.82
2023-05-12T03:50:45.217Z,67.01
2023-05-12T03:53:31.964Z,67.30
2023-05-12T03:56:18.675Z,67.07
2023-05-12T03:59:05.512Z,66.93
2023-05-12T04:01:53.420Z,67.20
2023-05-12T04:04:40.253Z,66.84
2023-05-12T04:07:27.185Z,66.86
2023-05-12T04:10:13.879Z,67.20
2023-05-12T04:13:00.821Z,67.21
2023-05-12T04:15:49.246Z,67.13
2023-05-12T04:18:36.760Z,66.80
2023-05-12T04:21:23.578Z,67.26
2023-05-12T04:24:10.344Z,67.19
2023-05-12T04:26:57.387Z,66.78
2023-05-12T04:29:44.258Z,67.30
2023-05-12T04:32:31.000Z,67.10
2023-05-12T04:35:17.749Z,66.80
2023-05-12T04:38:04.558Z,67.29
2023-05-12T04:40:51.330Z,67.00
2023-05-12T04:46:27.727Z,67.40
2023-05-12T04:49:14.399Z,67.01
2023-05-12T04:52:01.098Z,66.99
2023-05-12T04:54:47.859Z,67.51
2023-05-12T04:57:34.717Z,67.73
2023-05-12T05:00:21.501Z,67.44
2023-05-12T05:03:08.294Z,67.24
2023-05-12T05:05:55.090Z,67.41
2023-05-12T05:08:41.797Z,67.25
2023-05-12T05:11:28.482Z,67.62
2023-05-12T05:14:15.183Z,67.21
2023-05-12T05:17:02.306Z,67.37
2023-05-12T05:19:55.962Z,67.79
2023-05-12T05:22:45.811Z,67.87
2023-05-12T05:25:33.069Z,67.58
2023-05-12T05:28:19.770Z,67.96
2023-05-12T05:31:06.629Z,68.08
2023-05-12T05:33:53.389Z,67.93
2023-05-12T05:36:40.470Z,67.63
2023-05-12T05:39:30.694Z,68.11
2023-05-12T05:42:17.792Z,68.41
2023-05-12T05:45:04.747Z,67.95
2023-05-12T05:47:53.167Z,68.07
2023-05-12T05:50:39.970Z,67.99
2023-05-12T05:53:27.713Z,68.04
2023-05-12T05:56:14.501Z,68.27
2023-05-12T05:59:03.291Z,68.33
2023-05-12T06:01:50.042Z,68.33
2023-05-12T06:04:37.021Z,68.06
2023-05-12T06:07:23.723Z,68.34
2023-05-12T06:10:10.517Z,68.23
2023-05-12T06:12:57.220Z,68.14
2023-05-12T06:15:43.930Z,68.70
2023-05-12T06:18:30.768Z,68.49
2023-05-12T06:21:17.511Z,68.67
2023-05-12T06:24:04.367Z,68.50
2023-05-12T06:26:51.038Z,68.74
2023-05-12T06:29:37.772Z,68.78
2023-05-12T06:32:24.559Z,68.45
2023-05-12T06:35:11.711Z,68.56
2023-05-12T06:37:58.487Z,68.56
2023-05-12T06:40:45.241Z,68.31
2023-05-12T06:43:31.954Z,68.10
2023-05-12T06:46:18.893Z,68.59
2023-05-12T06:49:05.985Z,68.11
2023-05-12T06:51:52.716Z,68.51
2023-05-12T06:54:39.410Z,68.24
2023-05-12T06:57:26.368Z,68.45
2023-05-12T07:00:13.441Z,68.69
2023-05-12T07:03:00.211Z,68.39
2023-05-12T07:05:46.981Z,68.70
2023-05-12T07:08:33.799Z,68.61
2023-05-12T07:11:20.531Z,68.00
2023-05-12T07:14:07.311Z,68.23
2023-05-12T07:16:54.065Z,68.12
2023-05-12T07:19:40.806Z,68.57
2023-05-12T07:22:27.505Z,68.19
2023-05-12T07:25:14.305Z,68.25
2023-05-12T07:28:01.252Z,68.06
2023-05-12T07:30:47.948Z,68.30
2023-05-12T07:33:35.063Z,67.90
2023-05-12T07:36:22.189Z,67.81
2023-05-12T07:39:08.952Z,67.75
2023-05-12T07:41:55.608Z,67.86
2023-05-12T07:44:42.413Z,68.34
2023-05-12T07:47:29.249Z,68.47
2023-05-12T07:50:16.377Z,69.84
2023-05-12T07:53:04.307Z,69.27
2023-05-12T07:55:50.970Z,69.46
2023-05-12T07:58:37.662Z,68.85
2023-05-12T08:01:24.547Z,68.36
2023-05-12T08:04:11.655Z,68.34
2023-05-12T08:06:58.463Z,68.20
2023-05-12T08:09:45.261Z,67.94
2023-05-12T08:12:32.428Z,68.29
2023-05-12T08:15:19.289Z,68.45
2023-05-12T08:18:06.539Z,67.86
2023-05-12T08:20:53.327Z,68.25
2023-05-12T08:23:40.264Z,67.78
2023-05-12T08:26:27.138Z,67.91
2023-05-12T08:29:15.412Z,67.80
2023-05-12T08:32:02.416Z,68.33
2023-05-12T08:34:49.090Z,68.13
2023-05-12T08:37:35.751Z,67.82
2023-05-12T08:40:23.308Z,67.72
2023-05-12T08:43:13.994Z,67.93
2023-05-12T08:46:02.572Z,67.88
2023-05-12T08:48:50.289Z,68.26
2023-05-12T08:51:37.078Z,67.75
2023-05-12T08:54:23.780Z,67.78
2023-05-12T08:57:10.532Z,67.83
2023-05-12T08:59:59.468Z,67.97
2023-05-12T09:02:53.293Z,67.83
2023-05-12T09:05:41.201Z,67.62
2023-05-12T09:08:29.321Z,68.11
2023-05-12T09:11:16.068Z,68.02
2023-05-12T09:14:04.526Z,67.75
2023-05-12T09:16:57.771Z,67.79
2023-05-12T09:19:44.469Z,67.89
2023-05-12T09:22:31.613Z,68.07
2023-05-12T09:25:19.328Z,67.17
2023-05-12T09:28:06.324Z,67.77
2023-05-12T09:30:52.982Z,67.90
2023-05-12T09:33:39.621Z,67.64
2023-05-12T09:36:26.501Z,67.88
2023-05-12T09:39:13.523Z,67.25
2023-05-12T09:42:00.483Z,67.34
2023-05-12T09:44:47.213Z,67.32
2023-05-12T09:47:34.399Z,67.47
2023-05-12T09:50:22.854Z,67.67
2023-05-12T09:53:09.986Z,67.61
2023-05-12T09:55:56.687Z,67.67
2023-05-12T09:58:45.115Z,67.37
2023-05-12T10:01:32.048Z,67.77
2023-05-12T10:04:18.876Z,67.88
2023-05-12T10:07:06.586Z,67.23
2023-05-12T10:09:53.279Z,67.72
2023-05-12T10:12:40.072Z,67.42
2023-05-12T10:15:27.008Z,67.83
2023-05-12T10:18:14.270Z,67.60
2023-05-12T10:21:01.179Z,67.20
2023-05-12T10:23:47.976Z,67.23
2023-05-12T10:26:35.768Z,67.68
2023-05-12T10:29:22.742Z,67.87
2023-05-12T10:32:09.587Z,67.73
2023-05-12T10:35:06.951Z,67.40
2023-05-12T10:37:53.672Z,67.43
2023-05-12T10:40:51.574Z,67.76
2023-05-12T10:43:39.597Z,67.81
2023-05-12T10:46:27.291Z,67.11
2023-05-12T10:49:15.555Z,67.71
2023-05-12T10:52:02.271Z,67.54
2023-05-12T10:54:49.021Z,67.86
2023-05-12T10:57:36.324Z,67.40
2023-05-12T11:00:25.830Z,67.21
2023-05-12T11:03:14.881Z,67.41
2023-05-12T11:06:04.908Z,67.35
2023-05-12T11:08:53.128Z,67.13
2023-05-12T11:11:40.467Z,67.65
2023-05-12T11:14:27.451Z,67.41
2023-05-12T11:17:14.869Z,67.70
2023-05-12T11:20:02.028Z,67.58
2023-05-12T11:22:48.824Z,67.73
2023-05-12T11:25:35.728Z,67.39
2023-05-12T11:28:22.611Z,67.33
2023-05-12T11:31:09.288Z,67.33
2023-05-12T11:34:12.764Z,67.24
2023-05-12T11:37:00.151Z,67.72
2023-05-12T11:39:46.896Z,70.02
2023-05-12T11:42:33.610Z,69.96
2023-05-12T11:45:23.605Z,71.15
2023-05-12T11:50:23.512Z,70.73
2023-05-12T11:53:13.593Z,71.56
2023-05-12T11:56:00.637Z,71.88
2023-05-12T11:58:57.522Z,72.18
2023-05-12T12:01:46.627Z,72.58
2023-05-12T12:04:40.671Z,72.85
2023-05-12T12:07:35.750Z,73.20
2023-05-12T12:10:22.563Z,72.69
2023-05-12T12:13:09.384Z,72.67
2023-05-12T12:15:56.228Z,72.22
2023-05-12T12:18:43.412Z,72.13
2023-05-12T12:21:30.419Z,72.47
2023-05-12T12:24:17.550Z,72.58
2023-05-12T12:27:05.410Z,72.82
2023-05-12T12:29:52.242Z,72.31
2023-05-12T12:32:39.591Z,72.45
2023-05-12T12:35:26.777Z,72.19
2023-05-12T12:38:13.606Z,71.96
2023-05-12T12:41:00.460Z,72.39
2023-05-12T12:43:47.341Z,71.98
2023-05-12T12:46:34.270Z,72.08
2023-05-12T12:49:22.016Z,71.85
2023-05-12T12:52:09.127Z,72.17
2023-05-12T12:54:56.948Z,71.64
2023-05-12T12:57:43.757Z,71.27
2023-05-12T13:00:30.582Z,71.55
2023-05-12T13:03:20.070Z,71.68
2023-05-12T13:06:07.325Z,71.55
2023-05-12T13:08:54.305Z,71.40
2023-05-12T13:11:41.249Z,71.49
2023-05-12T13:14:28.088Z,71.37
2023-05-12T13:17:14.962Z,71.41
2023-05-12T13:20:02.332Z,71.52
2023-05-12T13:22:49.310Z,71.33
2023-05-12T13:25:36.137Z,71.74
2023-05-12T13:28:22.935Z,71.93
2023-05-12T13:31:09.924Z,71.46
2023-05-12T13:33:56.904Z,71.25
2023-05-12T13:36:43.748Z,71.14
2023-05-12T13:39:30.633Z,71.91
2023-05-12T13:42:17.456Z,71.35
2023-05-12T13:45:05.150Z,71.08
2023-05-12T13:47:51.985Z,71.30
2023-05-12T13:50:38.993Z,71.15
2023-05-12T13:53:25.797Z,71.44
2023-05-12T13:56:12.732Z,70.88
2023-05-12T13:58:59.603Z,71.21
2023-05-12T14:01:46.951Z,70.70
2023-05-12T14:04:33.977Z,70.66
2023-05-12T14:07:21.025Z,70.44
2023-05-12T14:10:08.164Z,71.19
2023-05-12T14:12:55.415Z,70.39
2023-05-12T14:15:49.457Z,71.09
2023-05-12T14:18:37.660Z,70.65
2023-05-12T14:21:24.547Z,70.87
2023-05-12T14:24:11.812Z,70.40
2023-05-12T14:26:59.565Z,70.43
2023-05-12T14:29:46.391Z,69.79
2023-05-12T14:32:34.367Z,69.82
2023-05-12T14:35:21.751Z,69.76
2023-05-12T14:38:09.241Z,69.71
2023-05-12T14:40:56.067Z,70.61
2023-05-12T14:43:42.923Z,69.80
2023-05-12T14:46:29.796Z,70.20
2023-05-12T14:49:20.649Z,69.93
2023-05-12T14:52:08.290Z,70.28
2023-05-12T14:54:55.273Z,70.04
2023-05-12T14:57:42.148Z,70.37
2023-05-12T15:00:28.967Z,69.73
2023-05-12T15:03:16.500Z,70.21
2023-05-12T15:06:06.996Z,69.98
2023-05-12T15:08:54.340Z,69.96
2023-05-12T15:11:44.489Z,69.48
2023-05-12T15:14:31.324Z,69.95
2023-05-12T15:17:18.493Z,69.25
2023-05-12T15:20:06.782Z,69.10
2023-05-12T15:22:54.454Z,69.32
2023-05-12T15:25:41.856Z,69.31
2023-05-12T15:28:28.686Z,69.70
2023-05-12T15:31:15.706Z,69.04
2023-05-12T15:34:03.007Z,69.24
2023-05-12T15:36:50.884Z,69.55
2023-05-12T15:39:37.704Z,69.10
2023-05-12T15:42:30.103Z,69.19
2023-05-12T15:45:19.804Z,68.83
2023-05-12T15:48:08.780Z,68.54
2023-05-12T15:50:56.572Z,68.93
2023-05-12T15:53:43.474Z,69.12
2023-05-12T15:56:30.387Z,68.95
2023-05-12T15:59:17.297Z,68.45
2023-05-12T16:02:04.167Z,68.21
2023-05-12T16:04:51.052Z,67.92
2023-05-12T16:07:38.773Z,67.76
2023-05-12T16:10:25.610Z,67.93
2023-05-12T16:13:13.758Z,67.90
2023-05-12T16:16:01.091Z,67.94
2023-05-12T16:18:47.978Z,67.52
2023-05-12T16:21:34.882Z,67.84
2023-05-12T16:24:21.889Z,67.41
2023-05-12T16:27:08.835Z,67.04
2023-05-12T16:29:55.727Z,67.17
2023-05-12T16:32:42.658Z,67.03
2023-05-12T16:35:29.445Z,66.84
2023-05-12T16:38:16.385Z,66.70
2023-05-12T16:41:03.219Z,67.57
2023-05-12T16:43:50.025Z,66.82
2023-05-12T16:46:37.729Z,67.05
2023-05-12T16:49:26.092Z,66.99
2023-05-12T16:52:14.768Z,67.08
2023-05-12T16:55:01.583Z,67.25
2023-05-12T16:57:48.402Z,66.94
2023-05-12T17:00:35.247Z,67.37
2023-05-12T17:03:22.881Z,66.80
2023-05-12T17:06:09.845Z,66.36
2023-05-12T17:08:56.638Z,67.37
2023-05-12T17:11:43.461Z,67.30
2023-05-12T17:14:30.832Z,67.05
2023-05-12T17:17:17.645Z,66.79
2023-05-12T17:20:06.027Z,66.83
2023-05-12T17:22:53.379Z,66.57
2023-05-12T17:25:40.236Z,66.18
2023-05-12T17:28:27.494Z,66.52
2023-05-12T17:31:14.347Z,66.75
2023-05-12T17:34:01.212Z,66.17
2023-05-12T17:36:48.588Z,65.46
2023-05-12T17:39:35.981Z,65.63
2023-05-12T17:42:23.154Z,65.90
2023-05-12T17:45:10.586Z,65.68
2023-05-12T17:47:57.417Z,65.92
2023-05-12T17:50:44.316Z,65.83
2023-05-12T17:53:31.833Z,65.72
2023-05-12T17:56:18.739Z,66.48
2023-05-12T17:59:05.551Z,66.03
2023-05-12T18:01:52.497Z,65.81
2023-05-12T18:04:39.833Z,65.34
2023-05-12T18:07:27.156Z,65.73
2023-05-12T18:10:14.202Z,66.09
2023-05-12T18:13:00.985Z,65.97
2023-05-12T18:15:49.014Z,65.50
2023-05-12T18:18:35.881Z,65.73
2023-05-12T18:21:22.887Z,65.75
2023-05-12T18:24:09.720Z,66.09
2023-05-12T18:26:56.538Z,65.75
2023-05-12T18:29:43.481Z,66.31
2023-05-12T18:32:31.548Z,66.20
2023-05-12T18:35:19.705Z,65.87
2023-05-12T18:38:07.535Z,66.11
2023-05-12T18:40:54.412Z,66.21
2023-05-12T18:43:43.041Z,65.49
2023-05-12T18:46:29.863Z,66.00
2023-05-12T18:49:16.730Z,65.61
2023-05-12T18:52:03.999Z,65.98
2023-05-12T18:54:50.938Z,65.94
2023-05-12T18:57:37.842Z,65.82
2023-05-12T19:00:27.490Z,65.86
2023-05-12T19:03:14.372Z,65.83
2023-05-12T19:06:01.467Z,66.51
2023-05-12T19:08:48.375Z,66.02
2023-05-12T19:11:35.244Z,65.78
2023-05-12T19:14:22.538Z,66.10
2023-05-12T19:17:09.656Z,66.10
2023-05-12T19:19:56.496Z,66.24
2023-05-12T19:22:44.061Z,66.13
2023-05-12T19:25:31.320Z,66.08
2023-05-12T19:28:18.120Z,66.17
2023-05-12T19:31:05.009Z,66.25
2023-05-12T19:33:52.014Z,66.19
2023-05-12T19:36:39.051Z,66.24
2023-05-12T19:39:25.845Z,66.59
2023-05-12T19:42:12.656Z,66.19
2023-05-12T19:45:00.565Z,65.89
2023-05-12T19:47:47.458Z,66.64
2023-05-12T19:50:34.325Z,65.72
2023-05-12T19:53:21.525Z,66.21
2023-05-12T19:56:08.304Z,66.38
2023-05-12T19:58:55.183Z,66.03
2023-05-12T20:01:42.090Z,65.69
2023-05-12T20:04:28.963Z,65.77
2023-05-12T20:07:15.836Z,66.35
2023-05-12T20:10:03.156Z,65.93
2023-05-12T20:12:50.047Z,65.69
2023-05-12T20:15:36.986Z,66.39
2023-05-12T20:18:24.002Z,66.09
2023-05-12T20:21:10.896Z,65.84
2023-05-12T20:23:57.819Z,65.53
2023-05-12T20:26:44.690Z,66.11
2023-05-12T20:29:31.530Z,65.86
2023-05-12T20:32:18.424Z,65.68
2023-05-12T20:35:05.688Z,65.77
2023-05-12T20:37:52.649Z,65.67
2023-05-12T20:40:40.500Z,65.80
2023-05-12T20:43:27.511Z,65.75
2023-05-12T20:46:14.359Z,65.80
2023-05-12T20:49:02.822Z,65.72
2023-05-12T20:51:49.633Z,66.11
2023-05-12T20:54:36.490Z,65.78
2023-05-12T20:57:23.392Z,65.29
2023-05-12T21:00:11.220Z,65.63
2023-05-12T21:02:58.664Z,65.65
2023-05-12T21:05:48.228Z,66.10
2023-05-12T21:08:35.074Z,65.33
2023-05-12T21:11:22.308Z,65.46
2023-05-12T21:14:09.171Z,65.61
2023-05-12T21:16:56.006Z,66.14
2023-05-12T21:19:44.047Z,65.19
2023-05-12T21:22:31.231Z,65.63
2023-05-12T21:25:18.078Z,66.19
2023-05-12T21:28:05.275Z,65.48
2023-05-12T21:30:52.059Z,65.55
2023-05-12T21:33:38.908Z,65.05
2023-05-12T21:36:25.768Z,65.27
2023-05-12T21:39:12.636Z,65.66
2023-05-12T21:41:59.919Z,65.45
2023-05-12T21:44:50.462Z,65.00
2023-05-12T21:47:37.329Z,65.38
2023-05-12T21:50:24.139Z,65.07
2023-05-12T21:53:11.051Z,64.94
2023-05-12T21:55:58.091Z,65.40
2023-05-12T21:58:44.906Z,65.00
2023-05-12T22:01:31.788Z,64.88
2023-05-12T22:04:18.667Z,65.35
2023-05-12T22:07:06.038Z,65.48
2023-05-12T22:09:52.919Z,65.28
2023-05-12T22:12:40.596Z,64.75
2023-05-12T22:15:27.537Z,65.19
2023-05-12T22:18:14.568Z,65.12
2023-05-12T22:21:01.384Z,65.19
2023-05-12T22:23:48.268Z,65.08
2023-05-12T22:26:35.066Z,65.18
2023-05-12T22:29:21.915Z,64.74
2023-05-12T22:32:08.783Z,64.77
2023-05-12T22:34:55.997Z,65.14
2023-05-12T22:37:43.183Z,64.94
2023-05-12T22:40:30.650Z,64.63
2023-05-12T22:43:17.929Z,64.98
2023-05-12T22:46:07.644Z,64.93
2023-05-12T22:48:54.515Z,64.68
2023-05-12T22:51:41.304Z,64.92
2023-05-12T22:54:28.095Z,64.42
2023-05-12T22:57:15.275Z,64.42
2023-05-12T23:00:02.095Z,64.42
2023-05-12T23:02:48.984Z,65.04
2023-05-12T23:05:35.945Z,64.53
2023-05-12T23:08:22.835Z,64.85
2023-05-12T23:11:09.787Z,64.80
2023-05-12T23:13:56.571Z,64.34
2023-05-12T23:16:43.516Z,64.75
2023-05-12T23:19:30.439Z,64.19
2023-05-12T23:22:17.231Z,64.27
2023-05-12T23:25:04.206Z,64.43
2023-05-12T23:27:51.083Z,64.61
2023-05-12T23:30:37.936Z,64.37
2023-05-12T23:33:24.865Z,64.14
2023-05-12T23:36:13.465Z,63.77
2023-05-12T23:39:00.404Z,64.11
2023-05-12T23:41:47.199Z,64.31
2023-05-12T23:44:34.057Z,64.17
2023-05-12T23:47:21.076Z,64.28
2023-05-12T23:50:08.618Z,64.01
2023-05-12T23:52:56.454Z,64.10
2023-05-12T23:55:43.257Z,64.11
2023-05-12T23:58:30.080Z,64.36
